createdAt,value
2023-02-24T00:02:15.003Z,43.85
2023-02-24T00:04:44.081Z,43.42
2023-02-24T00:07:12.839Z,45.53
2023-02-24T00:09:40.282Z,43.85
2023-02-24T00:12:10.754Z,43.80
2023-02-24T00:14:40.479Z,44.05
2023-02-24T00:17:08.317Z,43.30
2023-02-24T00:19:36.761Z,44.40
2023-02-24T00:22:05.981Z,45.35
2023-02-24T00:24:33.888Z,44.72
2023-02-24T00:27:02.361Z,43.28
2023-02-24T00:29:30.095Z,41.95
2023-02-24T00:32:01.276Z,42.47
2023-02-24T00:34:31.172Z,41.63
2023-02-24T00:36:59.367Z,41.75
2023-02-24T00:39:30.765Z,42.60
2023-02-24T00:42:04.683Z,39.97
2023-02-24T00:44:39.470Z,39.75
2023-02-24T00:47:08.265Z,41.35
2023-02-24T00:49:36.395Z,45.13
2023-02-24T00:52:08.048Z,39.45
2023-02-24T00:54:38.373Z,39.63
2023-02-24T00:57:08.265Z,40.53
2023-02-24T00:59:36.568Z,41.03
2023-02-24T01:02:04.104Z,40.33
2023-02-24T01:04:32.150Z,44.75
2023-02-24T01:07:02.144Z,41.90
2023-02-24T01:09:31.686Z,42.13
2023-02-24T01:12:22.112Z,40.90
2023-02-24T01:14:52.139Z,39.47
2023-02-24T01:17:20.895Z,39.53
2023-02-24T01:19:49.917Z,37.17
2023-02-24T01:22:19.815Z,39.00
2023-02-24T01:24:48.468Z,39.20
2023-02-24T01:27:19.992Z,46.45
2023-02-24T01:29:48.377Z,38.00
2023-02-24T01:32:19.455Z,41.90
2023-02-24T01:34:51.037Z,40.67
2023-02-24T01:37:19.263Z,38.50
2023-02-24T01:39:47.780Z,41.92
2023-02-24T01:42:19.351Z,38.65
2023-02-24T01:44:46.841Z,42.55
2023-02-24T01:47:16.110Z,42.95
2023-02-24T01:49:49.559Z,39.05
2023-02-24T01:52:22.188Z,36.40
2023-02-24T01:54:58.048Z,38.30
2023-02-24T01:57:29.485Z,37.80
2023-02-24T02:00:09.533Z,39.25
2023-02-24T02:02:39.168Z,38.70
2023-02-24T02:05:09.709Z,38.92
2023-02-24T02:07:41.579Z,39.83
2023-02-24T02:10:09.705Z,41.90
2023-02-24T02:12:44.037Z,41.92
2023-02-24T02:15:15.265Z,39.90
2023-02-24T02:18:07.117Z,41.13
2023-02-24T02:20:56.636Z,42.95
2023-02-24T02:23:50.195Z,43.58
2023-02-24T02:26:30.080Z,40.38
2023-02-24T02:29:02.910Z,41.63
2023-02-24T02:31:55.327Z,43.15
2023-02-24T02:34:36.853Z,41.45
2023-02-24T02:37:47.480Z,40.78
2023-02-24T02:40:24.143Z,37.75
2023-02-24T02:43:14.150Z,39.40
2023-02-24T02:45:51.771Z,36.83
2023-02-24T02:48:31.049Z,37.33
2023-02-24T02:51:04.286Z,36.80
2023-02-24T02:53:54.610Z,38.65
2023-02-24T02:56:30.683Z,37.35
2023-02-24T02:59:00.741Z,37.35
2023-02-24T03:01:33.371Z,36.35
2023-02-24T03:04:06.104Z,36.10
2023-02-24T03:06:37.676Z,36.37
2023-02-24T03:09:16.017Z,36.17
2023-02-24T03:11:49.022Z,35.47
2023-02-24T03:14:20.240Z,34.15
2023-02-24T03:16:49.903Z,34.33
2023-02-24T03:19:20.985Z,32.60
2023-02-24T03:21:59.136Z,33.88
2023-02-24T03:24:27.968Z,33.92
2023-02-24T03:27:06.734Z,32.42
2023-02-24T03:29:50.408Z,34.92
2023-02-24T03:32:26.846Z,34.25
2023-02-24T03:35:18.059Z,31.80
2023-02-24T03:37:47.328Z,31.48
2023-02-24T03:40:15.747Z,31.50
2023-02-24T03:42:47.215Z,32.15
2023-02-24T03:45:16.303Z,31.52
2023-02-24T03:47:45.534Z,30.52
2023-02-24T03:50:15.312Z,30.58
2023-02-24T03:53:01.510Z,32.65
2023-02-24T03:55:34.719Z,32.22
2023-02-24T03:58:28.140Z,31.08
2023-02-24T04:01:05.669Z,31.10
2023-02-24T04:03:57.722Z,29.25
2023-02-24T04:06:33.828Z,30.25
2023-02-24T04:09:29.987Z,33.20
2023-02-24T04:12:13.865Z,28.90
2023-02-24T04:17:25.043Z,25.38
2023-02-24T04:19:56.222Z,24.88
2023-02-24T04:22:26.621Z,25.10
2023-02-24T04:24:59.598Z,26.85
2023-02-24T04:27:28.657Z,24.70
2023-02-24T04:30:00.061Z,22.73
2023-02-24T04:32:30.164Z,22.73
2023-02-24T04:35:25.258Z,22.38
2023-02-24T04:37:52.721Z,20.45
2023-02-24T04:40:22.165Z,21.50
2023-02-24T04:42:51.893Z,21.40
2023-02-24T04:45:30.623Z,21.08
2023-02-24T04:48:02.084Z,21.73
2023-02-24T04:50:31.984Z,19.95
2023-02-24T04:53:01.735Z,19.17
2023-02-24T04:55:33.075Z,18.92
2023-02-24T04:58:01.844Z,18.13
2023-02-24T05:00:41.276Z,18.30
2023-02-24T05:03:11.475Z,17.85
2023-02-24T05:05:38.724Z,17.95
2023-02-24T05:08:08.676Z,18.98
2023-02-24T05:10:41.756Z,16.95
2023-02-24T05:15:42.023Z,14.90
2023-02-24T05:18:14.090Z,15.82
2023-02-24T05:21:02.509Z,14.25
2023-02-24T05:23:35.796Z,14.38
2023-02-24T05:26:08.557Z,14.18
2023-02-24T05:28:38.246Z,14.20
2023-02-24T05:31:08.435Z,14.93
2023-02-24T05:33:42.539Z,15.35
2023-02-24T05:36:15.157Z,13.57
2023-02-24T05:38:44.020Z,14.98
2023-02-24T05:41:17.656Z,13.70
2023-02-24T05:43:53.540Z,13.32
2023-02-24T05:46:28.292Z,12.68
2023-02-24T05:48:57.546Z,15.15
2023-02-24T05:51:35.312Z,14.23
2023-02-24T05:54:04.783Z,14.65
2023-02-24T05:56:37.292Z,13.57
2023-02-24T05:59:08.996Z,12.43
2023-02-24T06:01:38.077Z,12.55
2023-02-24T06:04:07.475Z,13.55
2023-02-24T06:06:38.792Z,14.43
2023-02-24T06:09:13.132Z,12.90
2023-02-24T06:11:42.184Z,12.60
2023-02-24T06:14:11.329Z,12.18
2023-02-24T06:16:40.151Z,11.45
2023-02-24T06:19:10.382Z,10.98
2023-02-24T06:21:41.283Z,11.45
2023-02-24T06:24:14.551Z,11.05
2023-02-24T06:26:45.432Z,11.80
2023-02-24T06:29:14.869Z,11.38
2023-02-24T06:31:43.103Z,12.05
2023-02-24T06:34:11.636Z,11.60
2023-02-24T06:36:38.739Z,11.98
2023-02-24T06:39:09.476Z,12.45
2023-02-24T06:41:37.864Z,13.48
2023-02-24T06:44:05.388Z,13.40
2023-02-24T06:46:32.337Z,12.23
2023-02-24T06:48:59.659Z,13.38
2023-02-24T06:51:30.111Z,14.30
2023-02-24T06:53:59.614Z,14.13
2023-02-24T06:56:27.756Z,13.57
2023-02-24T06:58:57.397Z,13.80
2023-02-24T07:01:27.918Z,11.75
2023-02-24T07:04:12.977Z,12.25
2023-02-24T07:06:42.172Z,10.98
2023-02-24T07:09:13.136Z,11.35
2023-02-24T07:11:46.665Z,11.38
2023-02-24T07:14:15.667Z,11.55
2023-02-24T07:16:45.500Z,11.50
2023-02-24T07:19:15.743Z,10.20
2023-02-24T07:21:49.754Z,10.00
2023-02-24T07:24:25.346Z,10.10
2023-02-24T07:26:57.475Z,10.35
2023-02-24T07:29:25.957Z,10.43
2023-02-24T07:31:54.974Z,10.77
2023-02-24T07:34:25.180Z,10.57
2023-02-24T07:36:54.525Z,10.77
2023-02-24T07:39:23.201Z,17.23
2023-02-24T07:41:51.852Z,21.92
2023-02-24T07:44:21.072Z,14.30
2023-02-24T07:46:49.266Z,10.50
2023-02-24T07:49:20.287Z,12.02
2023-02-24T07:51:52.701Z,11.07
2023-02-24T07:54:25.232Z,10.90
2023-02-24T07:56:59.047Z,10.93
2023-02-24T07:59:29.332Z,10.98
2023-02-24T08:01:56.858Z,15.85
2023-02-24T08:04:30.257Z,15.00
2023-02-24T08:07:02.382Z,13.15
2023-02-24T08:09:46.163Z,13.70
2023-02-24T08:12:17.836Z,13.43
2023-02-24T08:14:50.721Z,12.48
2023-02-24T08:17:20.130Z,12.60
2023-02-24T08:19:49.744Z,11.57
2023-02-24T08:22:20.907Z,10.95
2023-02-24T08:24:56.145Z,11.38
2023-02-24T08:27:25.229Z,11.68
2023-02-24T08:30:01.349Z,11.70
2023-02-24T08:32:37.144Z,10.85
2023-02-24T08:35:15.279Z,9.77
2023-02-24T08:37:47.669Z,9.45
2023-02-24T08:40:47.490Z,9.63
2023-02-24T08:43:16.321Z,8.90
2023-02-24T08:45:50.877Z,8.40
2023-02-24T08:50:56.213Z,9.65
2023-02-24T08:53:29.638Z,11.23
2023-02-24T08:55:59.772Z,10.43
2023-02-24T08:58:27.284Z,10.63
2023-02-24T09:00:57.093Z,11.90
2023-02-24T09:03:29.229Z,12.52
2023-02-24T09:06:04.703Z,8.65
2023-02-24T09:08:33.983Z,8.43
2023-02-24T09:11:08.030Z,7.95
2023-02-24T09:13:37.196Z,9.60
2023-02-24T09:16:05.349Z,11.20
2023-02-24T09:18:38.357Z,10.93
2023-02-24T09:24:00.387Z,7.30
2023-02-24T09:26:32.613Z,11.38
2023-02-24T09:28:59.841Z,16.17
2023-02-24T09:31:40.673Z,8.18
2023-02-24T09:34:18.393Z,12.50
2023-02-24T09:37:01.366Z,9.93
2023-02-24T09:39:54.640Z,12.30
2023-02-24T09:42:29.299Z,9.25
2023-02-24T09:45:02.215Z,11.60
2023-02-24T09:47:40.235Z,10.48
2023-02-24T09:50:38.293Z,9.48
2023-02-24T09:53:17.191Z,9.18
2023-02-24T09:56:05.513Z,10.02
2023-02-24T09:58:53.094Z,11.40
2023-02-24T10:01:23.564Z,22.25
2023-02-24T10:04:18.662Z,10.20
2023-02-24T10:07:12.888Z,11.23
2023-02-24T10:10:11.131Z,11.02
2023-02-24T10:12:40.299Z,9.82
2023-02-24T10:15:32.234Z,9.13
2023-02-24T10:18:16.377Z,9.43
2023-02-24T10:20:45.794Z,8.32
2023-02-24T10:23:16.035Z,11.55
2023-02-24T10:25:54.467Z,9.98
2023-02-24T10:28:51.812Z,10.63
2023-02-24T10:31:35.803Z,10.95
2023-02-24T10:34:08.755Z,9.32
2023-02-24T10:36:36.801Z,10.30
2023-02-24T10:39:15.525Z,9.50
2023-02-24T10:41:46.064Z,9.73
2023-02-24T10:44:21.107Z,10.93
2023-02-24T10:46:59.042Z,10.93
2023-02-24T10:49:26.779Z,12.18
2023-02-24T10:51:54.410Z,11.45
2023-02-24T10:54:45.043Z,12.77
2023-02-24T10:57:38.288Z,11.25
2023-02-24T11:00:17.784Z,11.88
2023-02-24T11:03:14.075Z,14.23
2023-02-24T11:06:04.512Z,13.93
2023-02-24T11:08:44.298Z,12.48
2023-02-24T11:11:29.835Z,12.77
2023-02-24T11:14:19.454Z,12.25
2023-02-24T11:17:11.387Z,11.48
2023-02-24T11:20:00.898Z,12.60
2023-02-24T11:22:33.961Z,13.55
2023-02-24T11:27:32.941Z,10.55
2023-02-24T11:30:09.120Z,14.18
2023-02-24T11:33:00.823Z,13.82
2023-02-24T11:35:41.801Z,12.63
2023-02-24T11:38:19.302Z,13.95
2023-02-24T11:40:51.718Z,11.77
2023-02-24T11:43:25.701Z,12.65
2023-02-24T11:46:07.280Z,12.00
2023-02-24T11:48:42.573Z,12.85
2023-02-24T11:51:30.219Z,16.90
2023-02-24T11:54:02.739Z,12.00
2023-02-24T11:56:38.871Z,14.57
2023-02-24T11:59:19.639Z,12.27
2023-02-24T12:02:08.830Z,12.40
2023-02-24T12:04:41.202Z,12.20
2023-02-24T12:07:34.843Z,13.05
2023-02-24T12:10:16.780Z,12.93
2023-02-24T12:13:10.995Z,11.85
2023-02-24T12:16:00.506Z,12.90
2023-02-24T12:18:34.562Z,10.93
2023-02-24T12:21:14.902Z,12.05
2023-02-24T12:23:45.657Z,11.80
2023-02-24T12:26:32.332Z,13.20
2023-02-24T12:29:20.559Z,10.45
2023-02-24T12:32:22.388Z,13.18
2023-02-24T12:35:21.645Z,13.18
2023-02-24T12:38:35.912Z,11.23
2023-02-24T12:41:24.033Z,10.70
2023-02-24T12:44:02.442Z,13.77
2023-02-24T12:46:40.073Z,18.65
2023-02-24T12:49:29.193Z,19.05
2023-02-24T12:52:09.472Z,12.38
2023-02-24T12:55:06.219Z,11.07
2023-02-24T12:57:48.290Z,12.07
2023-02-24T13:00:29.693Z,12.20
2023-02-24T13:03:15.739Z,11.88
2023-02-24T13:06:05.334Z,11.18
2023-02-24T13:09:05.928Z,10.23
2023-02-24T13:11:42.193Z,9.73
2023-02-24T13:14:12.141Z,10.00
2023-02-24T13:16:39.223Z,11.23
2023-02-24T13:19:27.641Z,12.15
2023-02-24T13:22:22.123Z,11.70
2023-02-24T13:25:17.498Z,12.23
2023-02-24T13:27:54.136Z,12.63
2023-02-24T13:30:26.764Z,16.38
2023-02-24T13:33:06.098Z,14.02
2023-02-24T13:35:36.630Z,12.77
2023-02-24T13:38:31.048Z,13.10
2023-02-24T13:41:21.176Z,13.70
2023-02-24T13:43:59.978Z,11.63
2023-02-24T13:46:33.745Z,11.80
2023-02-24T13:51:52.971Z,10.52
2023-02-24T13:54:46.710Z,11.43
2023-02-24T13:57:31.982Z,11.38
2023-02-24T14:00:36.375Z,12.10
2023-02-24T14:03:11.030Z,13.15
2023-02-24T14:05:41.906Z,12.25
2023-02-24T14:08:37.017Z,12.63
2023-02-24T14:11:04.229Z,11.85
2023-02-24T14:13:34.280Z,12.80
2023-02-24T14:16:10.851Z,11.30
2023-02-24T14:18:39.093Z,11.25
2023-02-24T14:21:06.199Z,11.20
2023-02-24T14:23:34.831Z,12.15
2023-02-24T14:26:08.088Z,10.73
2023-02-24T14:28:37.677Z,10.75
2023-02-24T14:31:16.509Z,12.00
2023-02-24T14:33:45.347Z,11.75
2023-02-24T14:36:22.790Z,11.05
2023-02-24T14:39:15.458Z,11.88
2023-02-24T14:41:43.073Z,14.18
2023-02-24T14:44:27.732Z,12.73
2023-02-24T14:46:57.838Z,11.18
2023-02-24T14:49:32.731Z,12.80
2023-02-24T14:52:19.120Z,12.45
2023-02-24T14:54:53.084Z,11.35
2023-02-24T14:57:34.664Z,12.07
2023-02-24T15:00:10.899Z,12.10
2023-02-24T15:02:43.778Z,11.60
2023-02-24T15:05:11.963Z,12.10
2023-02-24T15:07:39.901Z,12.63
2023-02-24T15:10:17.342Z,12.30
2023-02-24T15:12:48.679Z,12.02
2023-02-24T15:15:27.072Z,12.70
2023-02-24T15:17:57.892Z,12.10
2023-02-24T15:20:26.595Z,12.85
2023-02-24T15:22:53.787Z,11.52
2023-02-24T15:25:37.229Z,11.93
2023-02-24T15:28:26.870Z,12.02
2023-02-24T15:31:30.174Z,12.35
2023-02-24T15:34:00.307Z,11.63
2023-02-24T15:36:36.118Z,10.35
2023-02-24T15:39:07.432Z,10.88
2023-02-24T15:42:05.436Z,10.40
2023-02-24T15:44:34.443Z,10.43
2023-02-24T15:47:20.398Z,10.18
2023-02-24T15:49:47.478Z,10.02
2023-02-24T15:52:17.381Z,10.60
2023-02-24T15:54:44.417Z,10.43
2023-02-24T15:57:16.529Z,10.38
2023-02-24T15:59:44.607Z,10.23
2023-02-24T16:02:15.832Z,11.25
2023-02-24T16:04:43.068Z,10.63
2023-02-24T16:07:17.271Z,11.40
2023-02-24T16:09:45.852Z,10.93
2023-02-24T16:12:21.733Z,12.05
2023-02-24T16:14:55.937Z,10.13
2023-02-24T16:17:39.946Z,9.20
2023-02-24T16:20:12.545Z,9.80
2023-02-24T16:22:39.850Z,10.43
2023-02-24T16:25:07.400Z,10.73
2023-02-24T16:27:35.932Z,10.80
2023-02-24T16:30:03.889Z,10.45
2023-02-24T16:32:31.328Z,9.30
2023-02-24T16:34:58.444Z,9.32
2023-02-24T16:37:29.901Z,9.80
2023-02-24T16:39:59.462Z,10.27
2023-02-24T16:42:27.225Z,9.27
2023-02-24T16:44:54.172Z,9.68
2023-02-24T16:47:24.263Z,10.25
2023-02-24T16:49:55.270Z,10.88
2023-02-24T16:52:24.745Z,10.13
2023-02-24T16:54:51.842Z,10.05
2023-02-24T16:57:19.137Z,9.85
2023-02-24T16:59:46.408Z,10.57
2023-02-24T17:02:20.003Z,10.65
2023-02-24T17:04:46.969Z,10.55
2023-02-24T17:07:19.129Z,9.85
2023-02-24T17:09:46.067Z,9.73
2023-02-24T17:12:15.323Z,10.35
2023-02-24T17:14:42.434Z,10.45
2023-02-24T17:17:11.644Z,10.30
2023-02-24T17:19:39.382Z,9.98
2023-02-24T17:22:06.645Z,10.15
2023-02-24T17:24:33.821Z,10.50
2023-02-24T17:27:01.292Z,10.52
2023-02-24T17:29:28.261Z,11.00
2023-02-24T17:31:57.304Z,10.88
2023-02-24T17:34:24.497Z,11.45
2023-02-24T17:36:51.787Z,10.75
2023-02-24T17:39:18.773Z,10.50
2023-02-24T17:41:46.046Z,10.55
2023-02-24T17:44:13.153Z,10.95
2023-02-24T17:46:40.486Z,10.45
2023-02-24T17:49:07.611Z,10.10
2023-02-24T17:51:34.987Z,11.23
2023-02-24T17:54:02.025Z,10.52
2023-02-24T17:56:29.700Z,10.88
2023-02-24T17:58:58.890Z,10.43
2023-02-24T18:01:27.068Z,10.95
2023-02-24T18:03:57.986Z,11.07
2023-02-24T18:06:25.459Z,10.30
2023-02-24T18:08:52.426Z,10.20
2023-02-24T18:11:20.077Z,11.65
2023-02-24T18:13:50.779Z,10.63
2023-02-24T18:16:18.121Z,11.35
2023-02-24T18:18:45.228Z,11.10
2023-02-24T18:21:12.531Z,11.13
2023-02-24T18:23:40.206Z,11.65
2023-02-24T18:26:09.521Z,11.55
2023-02-24T18:28:36.937Z,11.15
2023-02-24T18:31:25.670Z,11.23
2023-02-24T18:33:53.576Z,10.18
2023-02-24T18:36:21.441Z,10.32
2023-02-24T18:38:48.571Z,10.55
2023-02-24T18:41:21.613Z,9.98
2023-02-24T18:43:50.314Z,10.60
2023-02-24T18:46:18.632Z,10.27
2023-02-24T18:48:46.877Z,11.30
2023-02-24T18:51:17.172Z,10.90
2023-02-24T18:53:44.909Z,10.63
2023-02-24T18:56:23.788Z,11.13
2023-02-24T18:58:52.625Z,10.63
2023-02-24T19:01:24.468Z,10.20
2023-02-24T19:03:52.631Z,10.27
2023-02-24T19:06:21.546Z,10.52
2023-02-24T19:08:50.779Z,9.25
2023-02-24T19:11:19.889Z,9.75
2023-02-24T19:13:47.797Z,10.10
2023-02-24T19:16:16.169Z,10.02
2023-02-24T19:18:43.878Z,9.65
2023-02-24T19:21:11.610Z,11.02
2023-02-24T19:23:38.823Z,10.68
2023-02-24T19:26:07.564Z,9.90
2023-02-24T19:28:34.526Z,10.70
2023-02-24T19:31:01.837Z,10.75
2023-02-24T19:33:28.786Z,10.35
2023-02-24T19:35:59.557Z,10.40
2023-02-24T19:38:26.600Z,10.02
2023-02-24T19:40:58.437Z,11.13
2023-02-24T19:43:25.477Z,9.70
2023-02-24T19:45:53.200Z,10.30
2023-02-24T19:48:20.251Z,10.18
2023-02-24T19:50:47.652Z,10.27
2023-02-24T19:53:14.605Z,9.30
2023-02-24T19:55:48.426Z,9.73
2023-02-24T19:58:15.503Z,11.02
2023-02-24T20:00:42.843Z,10.68
2023-02-24T20:03:09.849Z,10.48
2023-02-24T20:05:37.591Z,10.70
2023-02-24T20:08:04.594Z,10.48
2023-02-24T20:10:32.167Z,11.02
2023-02-24T20:12:59.157Z,10.73
2023-02-24T20:15:26.500Z,10.27
2023-02-24T20:17:53.515Z,10.07
2023-02-24T20:20:21.038Z,10.52
2023-02-24T20:22:48.024Z,9.93
2023-02-24T20:25:15.819Z,10.15
2023-02-24T20:27:42.861Z,10.50
2023-02-24T20:30:10.821Z,10.85
2023-02-24T20:32:38.278Z,10.93
2023-02-24T20:35:06.085Z,10.68
2023-02-24T20:37:33.062Z,10.27
2023-02-24T20:40:00.296Z,10.30
2023-02-24T20:42:27.331Z,10.73
2023-02-24T20:44:54.782Z,10.60
2023-02-24T20:47:21.742Z,10.85
2023-02-24T20:49:49.114Z,10.75
2023-02-24T20:52:16.121Z,11.18
2023-02-24T20:54:45.569Z,11.32
2023-02-24T20:57:12.523Z,10.38
2023-02-24T20:59:49.306Z,10.55
2023-02-24T21:02:21.684Z,11.52
2023-02-24T21:04:49.009Z,10.63
2023-02-24T21:07:15.988Z,10.95
2023-02-24T21:09:43.379Z,10.45
2023-02-24T21:12:10.445Z,11.18
2023-02-24T21:14:37.695Z,11.45
2023-02-24T21:17:05.014Z,10.35
2023-02-24T21:19:32.216Z,11.13
2023-02-24T21:21:59.301Z,10.77
2023-02-24T21:24:26.812Z,11.05
2023-02-24T21:26:53.773Z,10.65
2023-02-24T21:29:21.116Z,10.07
2023-02-24T21:31:49.763Z,10.68
2023-02-24T21:34:17.153Z,9.73
2023-02-24T21:36:44.184Z,10.43
2023-02-24T21:39:15.185Z,10.52
2023-02-24T21:41:42.455Z,9.98
2023-02-24T21:44:14.233Z,10.45
2023-02-24T21:46:42.428Z,10.25
2023-02-24T21:49:14.381Z,10.63
2023-02-24T21:51:41.986Z,12.10
2023-02-24T21:54:12.442Z,10.90
2023-02-24T21:56:39.572Z,11.70
2023-02-24T21:59:09.194Z,10.73
2023-02-24T22:01:39.238Z,12.00
2023-02-24T22:04:10.324Z,10.23
2023-02-24T22:06:39.572Z,12.60
2023-02-24T22:09:08.655Z,10.77
2023-02-24T22:11:38.728Z,10.20
2023-02-24T22:14:11.488Z,12.00
2023-02-24T22:16:39.671Z,13.13
2023-02-24T22:19:07.390Z,10.98
2023-02-24T22:21:34.689Z,13.50
2023-02-24T22:24:03.809Z,11.40
2023-02-24T22:26:32.076Z,11.23
2023-02-24T22:29:00.807Z,10.73
2023-02-24T22:31:30.923Z,11.40
2023-02-24T22:33:58.787Z,11.40
2023-02-24T22:36:28.624Z,11.30
2023-02-24T22:38:57.447Z,11.02
2023-02-24T22:41:27.582Z,11.25
2023-02-24T22:43:54.906Z,10.75
2023-02-24T22:46:25.341Z,11.90
2023-02-24T22:48:53.122Z,12.07
2023-02-24T22:51:20.383Z,11.60
2023-02-24T22:53:49.654Z,11.52
2023-02-24T22:56:20.707Z,11.30
2023-02-24T22:58:48.945Z,12.13
2023-02-24T23:01:24.812Z,11.25
2023-02-24T23:03:52.631Z,11.60
2023-02-24T23:06:22.899Z,10.70
2023-02-24T23:08:51.451Z,11.23
2023-02-24T23:11:30.581Z,12.27
2023-02-24T23:14:01.257Z,11.60
2023-02-24T23:16:31.751Z,17.75
2023-02-24T23:19:05.154Z,11.57
2023-02-24T23:21:37.828Z,12.13
2023-02-24T23:26:36.996Z,10.85
2023-02-24T23:29:06.075Z,11.02
2023-02-24T23:31:33.430Z,12.57
2023-02-24T23:34:02.998Z,12.73
2023-02-24T23:36:30.781Z,11.95
2023-02-24T23:38:58.017Z,12.50
2023-02-24T23:41:24.958Z,12.27
2023-02-24T23:43:52.185Z,13.40
2023-02-24T23:46:19.208Z,13.20
2023-02-24T23:48:46.524Z,12.10
2023-02-24T23:51:14.241Z,11.98
2023-02-24T23:53:43.552Z,13.20
2023-02-24T23:56:17.742Z,12.70
2023-02-24T23:58:49.011Z,12.20
